createdAt,value
2023-02-26T00:00:46.408Z,55.70
2023-02-26T00:03:50.848Z,56.20
2023-02-26T00:06:56.141Z,56.50
2023-02-26T00:10:07.781Z,56.30
2023-02-26T00:13:12.711Z,55.90
2023-02-26T00:16:30.677Z,56.10
2023-02-26T00:19:35.184Z,55.80
2023-02-26T00:22:40.827Z,56.00
2023-02-26T00:25:46.625Z,56.00
2023-02-26T00:28:51.313Z,56.10
2023-02-26T00:31:56.144Z,56.10
2023-02-26T00:35:01.793Z,56.20
2023-02-26T00:38:10.557Z,56.30
2023-02-26T00:41:16.836Z,56.40
2023-02-26T00:44:22.339Z,56.40
2023-02-26T00:47:39.668Z,56.40
2023-02-26T00:50:54.148Z,56.10
2023-02-26T00:54:11.061Z,56.40
2023-02-26T00:57:16.366Z,57.10
2023-02-26T01:00:22.362Z,56.60
2023-02-26T01:03:26.887Z,56.00
2023-02-26T01:06:37.678Z,56.50
2023-02-26T01:09:44.131Z,56.70
2023-02-26T01:12:50.667Z,56.80
2023-02-26T01:16:09.495Z,56.80
2023-02-26T01:19:27.697Z,56.90
2023-02-26T01:22:40.090Z,55.90
2023-02-26T01:25:51.224Z,57.80
2023-02-26T01:28:58.823Z,57.30
2023-02-26T01:32:14.017Z,57.30
2023-02-26T01:35:33.848Z,58.30
2023-02-26T01:38:50.316Z,58.00
2023-02-26T01:42:07.452Z,57.40
2023-02-26T01:45:19.367Z,58.60
2023-02-26T01:48:37.230Z,57.20
2023-02-26T01:51:52.396Z,57.30
2023-02-26T01:54:56.290Z,57.60
2023-02-26T01:58:03.400Z,57.60
2023-02-26T02:01:09.228Z,59.00
2023-02-26T02:04:17.261Z,57.40
2023-02-26T02:07:21.339Z,56.80
2023-02-26T02:10:25.272Z,57.70
2023-02-26T02:14:04.438Z,57.80
2023-02-26T02:17:25.264Z,58.10
2023-02-26T02:21:07.942Z,58.00
2023-02-26T02:24:20.573Z,57.90
2023-02-26T02:27:35.719Z,57.90
2023-02-26T02:30:58.823Z,58.00
2023-02-26T02:34:14.049Z,58.20
2023-02-26T02:37:24.543Z,58.30
2023-02-26T02:40:33.422Z,58.20
2023-02-26T02:43:42.391Z,58.50
2023-02-26T02:46:56.966Z,57.80
2023-02-26T02:50:08.644Z,58.70
2023-02-26T02:53:18.595Z,58.80
2023-02-26T02:56:30.181Z,58.80
2023-02-26T02:59:40.927Z,58.90
2023-02-26T03:02:55.278Z,59.10
2023-02-26T03:05:59.289Z,59.10
2023-02-26T03:09:06.002Z,59.20
2023-02-26T03:12:10.320Z,59.20
2023-02-26T03:15:16.552Z,59.30
2023-02-26T03:18:41.885Z,59.40
2023-02-26T03:21:55.466Z,59.50
2023-02-26T03:25:08.059Z,59.50
2023-02-26T03:28:19.904Z,59.50
2023-02-26T03:31:31.893Z,59.60
2023-02-26T03:34:48.578Z,60.40
2023-02-26T03:37:58.823Z,59.40
2023-02-26T03:41:10.110Z,59.70
2023-02-26T03:44:24.573Z,60.00
2023-02-26T03:47:30.886Z,61.10
2023-02-26T03:50:42.761Z,61.50
2023-02-26T03:53:54.125Z,60.30
2023-02-26T03:56:58.042Z,60.50
2023-02-26T04:03:15.696Z,60.20
2023-02-26T04:06:21.518Z,60.20
2023-02-26T04:09:26.975Z,60.90
2023-02-26T04:12:31.057Z,61.80
2023-02-26T04:15:37.587Z,60.00
2023-02-26T04:18:43.345Z,61.90
2023-02-26T04:21:49.356Z,60.90
2023-02-26T04:24:53.165Z,60.80
2023-02-26T04:27:57.704Z,61.00
2023-02-26T04:31:02.229Z,61.00
2023-02-26T04:34:09.190Z,61.10
2023-02-26T04:37:14.769Z,61.00
2023-02-26T04:40:19.513Z,60.80
2023-02-26T04:43:24.214Z,60.80
2023-02-26T04:46:28.611Z,60.90
2023-02-26T04:49:32.430Z,61.70
2023-02-26T04:52:38.123Z,59.60
2023-02-26T04:55:43.335Z,60.70
2023-02-26T04:58:48.511Z,60.40
2023-02-26T05:01:52.213Z,60.90
2023-02-26T05:04:56.130Z,61.70
2023-02-26T05:08:01.663Z,61.40
2023-02-26T05:11:05.574Z,62.80
2023-02-26T05:14:09.437Z,61.50
2023-02-26T05:17:15.732Z,61.30
2023-02-26T05:20:19.585Z,63.00
2023-02-26T05:23:24.876Z,61.00
2023-02-26T05:26:28.503Z,62.30
2023-02-26T05:29:33.063Z,61.70
2023-02-26T05:32:37.931Z,61.60
2023-02-26T05:35:41.699Z,63.20
2023-02-26T05:38:46.608Z,62.00
2023-02-26T05:41:51.957Z,61.60
2023-02-26T05:44:55.516Z,62.90
2023-02-26T05:47:58.977Z,60.90
2023-02-26T05:51:03.799Z,62.40
2023-02-26T05:54:08.698Z,62.30
2023-02-26T05:57:11.950Z,63.30
2023-02-26T06:00:16.764Z,62.80
2023-02-26T06:03:20.286Z,62.40
2023-02-26T06:06:27.298Z,62.80
2023-02-26T06:09:36.996Z,63.00
2023-02-26T06:12:41.201Z,63.10
2023-02-26T06:15:45.128Z,63.00
2023-02-26T06:18:50.352Z,64.40
2023-02-26T06:21:54.452Z,62.00
2023-02-26T06:24:59.587Z,63.40
2023-02-26T06:28:07.941Z,64.00
2023-02-26T06:31:11.619Z,63.70
2023-02-26T06:34:15.326Z,63.90
2023-02-26T06:37:18.896Z,65.60
2023-02-26T06:40:24.414Z,63.60
2023-02-26T06:46:32.938Z,63.90
2023-02-26T06:49:36.318Z,64.40
2023-02-26T06:52:39.967Z,65.10
2023-02-26T06:55:48.075Z,64.40
2023-02-26T06:58:56.692Z,65.40
2023-02-26T07:02:01.340Z,65.30
2023-02-26T07:11:17.028Z,64.90
2023-02-26T07:14:23.286Z,64.80
2023-02-26T07:17:49.554Z,64.90
2023-02-26T07:21:06.652Z,65.30
2023-02-26T07:27:20.954Z,65.00
2023-02-26T07:30:27.037Z,65.00
2023-02-26T07:33:32.777Z,64.90
2023-02-26T07:36:36.751Z,64.90
2023-02-26T07:39:41.456Z,65.40
2023-02-26T07:42:47.914Z,67.20
2023-02-26T07:46:02.240Z,63.20
2023-02-26T07:53:27.950Z,64.80
2023-02-26T07:57:14.578Z,64.90
2023-02-26T08:00:24.589Z,64.80
2023-02-26T08:09:41.172Z,65.40
2023-02-26T08:13:12.811Z,63.90
2023-02-26T08:16:21.051Z,63.70
2023-02-26T08:28:42.118Z,63.50
2023-02-26T08:31:50.754Z,62.30
2023-02-26T08:44:21.943Z,60.40
2023-02-26T08:48:03.219Z,61.80
2023-02-26T09:04:31.468Z,60.00
2023-02-26T09:14:12.197Z,60.10
2023-02-26T09:17:16.421Z,59.60
2023-02-26T09:20:26.102Z,60.90
2023-02-26T09:23:32.611Z,59.40
2023-02-26T09:26:40.006Z,60.00
2023-02-26T09:29:46.505Z,60.70
2023-02-26T09:33:00.772Z,60.00
2023-02-26T09:36:33.749Z,59.40
2023-02-26T09:39:48.846Z,58.70
2023-02-26T09:43:13.388Z,60.20
2023-02-26T09:46:38.637Z,58.50
2023-02-26T09:50:00.244Z,58.40
2023-02-26T09:53:17.285Z,57.70
2023-02-26T09:56:27.826Z,57.60
2023-02-26T09:59:35.276Z,58.00
2023-02-26T10:02:55.321Z,58.10
2023-02-26T10:06:24.810Z,57.80
2023-02-26T10:09:53.530Z,57.70
2023-02-26T10:13:28.057Z,56.90
2023-02-26T10:16:55.667Z,55.50
2023-02-26T10:20:23.442Z,55.70
2023-02-26T10:23:49.852Z,55.70
2023-02-26T10:27:05.833Z,57.10
2023-02-26T10:30:23.464Z,55.90
2023-02-26T10:33:43.858Z,56.20
2023-02-26T10:37:00.791Z,56.10
2023-02-26T10:40:16.252Z,55.50
2023-02-26T10:43:47.092Z,55.40
2023-02-26T10:47:03.495Z,53.90
2023-02-26T10:50:17.613Z,54.30
2023-02-26T10:53:25.323Z,55.30
2023-02-26T10:59:39.174Z,52.80
2023-02-26T11:02:47.152Z,54.20
2023-02-26T11:12:32.555Z,52.60
2023-02-26T11:15:39.344Z,52.40
2023-02-26T11:18:49.699Z,53.20
2023-02-26T11:21:54.182Z,52.40
2023-02-26T11:25:00.441Z,53.00
2023-02-26T11:28:07.989Z,52.30
2023-02-26T11:31:19.425Z,52.20
2023-02-26T11:34:52.434Z,53.60
2023-02-26T11:38:04.480Z,53.20
2023-02-26T11:41:39.598Z,52.50
2023-02-26T11:44:54.062Z,51.90
2023-02-26T11:48:07.863Z,52.40
2023-02-26T11:51:18.849Z,52.20
2023-02-26T11:54:30.360Z,51.60
2023-02-26T11:57:35.773Z,52.20
2023-02-26T12:00:42.267Z,52.20
2023-02-26T12:03:51.154Z,50.40
2023-02-26T12:06:57.968Z,51.50
2023-02-26T12:10:01.479Z,52.00
2023-02-26T12:13:20.945Z,50.60
2023-02-26T12:16:38.490Z,50.50
2023-02-26T12:19:53.660Z,50.20
2023-02-26T12:23:21.332Z,50.60
2023-02-26T12:26:35.985Z,50.40
2023-02-26T12:30:04.482Z,50.70
2023-02-26T12:33:27.024Z,50.60
2023-02-26T12:37:03.622Z,50.10
2023-02-26T12:40:31.080Z,49.50
2023-02-26T12:43:47.478Z,50.30
2023-02-26T12:47:26.092Z,51.20
2023-02-26T12:50:58.349Z,51.10
2023-02-26T12:54:42.753Z,50.40
2023-02-26T12:58:22.356Z,49.50
2023-02-26T13:02:01.082Z,50.60
2023-02-26T13:05:38.810Z,50.00
2023-02-26T13:09:01.779Z,50.60
2023-02-26T13:12:36.908Z,50.90
2023-02-26T13:16:20.330Z,50.50
2023-02-26T13:19:47.218Z,49.60
2023-02-26T13:23:08.335Z,48.70
2023-02-26T13:26:27.994Z,50.10
2023-02-26T13:30:04.134Z,50.10
2023-02-26T13:33:40.974Z,51.20
2023-02-26T13:36:57.641Z,51.10
2023-02-26T13:40:45.552Z,51.60
2023-02-26T13:44:20.563Z,50.90
2023-02-26T13:48:22.028Z,50.40
2023-02-26T13:51:41.037Z,49.30
2023-02-26T13:54:54.885Z,50.90
2023-02-26T13:58:44.499Z,52.10
2023-02-26T14:01:59.891Z,50.50
2023-02-26T14:05:35.928Z,50.70
2023-02-26T14:08:51.722Z,52.10
2023-02-26T14:12:04.144Z,50.80
2023-02-26T14:15:34.431Z,51.00
2023-02-26T14:18:51.394Z,50.60
2023-02-26T14:22:32.740Z,50.80
2023-02-26T14:25:56.779Z,51.80
2023-02-26T14:29:20.024Z,52.80
2023-02-26T14:32:33.506Z,52.50
2023-02-26T14:35:45.827Z,53.60
2023-02-26T14:39:23.780Z,52.30
2023-02-26T14:42:48.536Z,52.60
2023-02-26T14:45:53.718Z,52.80
2023-02-26T14:49:01.406Z,52.70
2023-02-26T14:53:12.185Z,53.00
2023-02-26T14:56:28.588Z,53.10
2023-02-26T15:00:14.383Z,53.30
2023-02-26T15:04:30.609Z,53.30
2023-02-26T15:08:15.027Z,54.10
2023-02-26T15:12:03.309Z,53.80
2023-02-26T15:16:01.568Z,53.80
2023-02-26T15:19:44.316Z,53.70
2023-02-26T15:23:15.467Z,54.00
2023-02-26T15:26:32.146Z,54.00
2023-02-26T15:29:42.524Z,54.20
2023-02-26T15:32:47.763Z,54.90
2023-02-26T15:35:56.704Z,54.50
2023-02-26T15:39:04.713Z,54.30
2023-02-26T15:42:15.458Z,54.70
2023-02-26T15:45:28.316Z,54.70
2023-02-26T15:48:43.440Z,54.80
2023-02-26T15:51:48.533Z,54.80
2023-02-26T15:54:59.197Z,54.80
2023-02-26T15:58:09.244Z,54.90
2023-02-26T16:01:43.844Z,54.10
2023-02-26T16:05:22.893Z,54.90
2023-02-26T16:08:34.067Z,54.90
2023-02-26T16:12:04.067Z,55.10
2023-02-26T16:15:59.001Z,55.60
2023-02-26T16:19:47.991Z,55.00
2023-02-26T16:23:30.486Z,56.60
2023-02-26T16:26:54.471Z,55.40
2023-02-26T16:30:26.884Z,56.20
2023-02-26T16:33:49.112Z,56.10
2023-02-26T16:37:51.401Z,57.30
2023-02-26T16:41:13.701Z,56.50
2023-02-26T16:45:15.874Z,56.60
2023-02-26T16:48:54.666Z,57.20
2023-02-26T16:52:41.910Z,57.10
2023-02-26T16:56:02.832Z,57.30
2023-02-26T16:59:54.267Z,58.70
2023-02-26T17:03:35.470Z,58.20
2023-02-26T17:07:10.407Z,58.40
2023-02-26T17:10:40.320Z,58.50
2023-02-26T17:14:37.547Z,59.50
2023-02-26T17:18:09.958Z,59.10
2023-02-26T17:21:45.487Z,59.10
2023-02-26T17:25:35.814Z,59.70
2023-02-26T17:29:10.124Z,60.20
2023-02-26T17:32:36.973Z,58.80
2023-02-26T17:36:02.804Z,60.00
2023-02-26T17:39:21.285Z,59.90
2023-02-26T17:42:42.018Z,60.20
2023-02-26T17:45:51.315Z,60.50
2023-02-26T17:48:55.888Z,60.40
2023-02-26T17:52:00.444Z,60.40
2023-02-26T17:55:10.836Z,60.80
2023-02-26T17:58:19.921Z,60.60
2023-02-26T18:01:53.706Z,61.40
2023-02-26T18:05:00.444Z,61.80
2023-02-26T18:08:36.232Z,61.60
2023-02-26T18:11:58.541Z,62.70
2023-02-26T18:15:13.194Z,61.90
2023-02-26T18:18:37.411Z,61.70
2023-02-26T18:21:44.576Z,62.60
2023-02-26T18:24:50.957Z,62.00
2023-02-26T18:28:01.202Z,61.00
2023-02-26T18:31:11.163Z,61.80
2023-02-26T18:34:21.319Z,62.00
2023-02-26T18:37:30.455Z,62.20
2023-02-26T18:41:23.928Z,62.10
2023-02-26T18:44:42.182Z,62.50
2023-02-26T18:48:18.941Z,62.70
2023-02-26T18:51:44.314Z,62.70
2023-02-26T18:55:01.313Z,63.10
2023-02-26T18:58:34.026Z,63.20
2023-02-26T19:01:55.387Z,63.40
2023-02-26T19:05:15.808Z,63.40
2023-02-26T19:08:37.117Z,63.70
2023-02-26T19:11:46.434Z,63.60
2023-02-26T19:15:24.920Z,64.00
2023-02-26T19:19:05.472Z,64.90
2023-02-26T19:22:20.104Z,64.80
2023-02-26T19:25:58.930Z,64.10
2023-02-26T19:29:21.910Z,65.30
2023-02-26T19:32:30.335Z,63.50
2023-02-26T19:35:38.605Z,64.40
2023-02-26T19:39:08.830Z,64.50
2023-02-26T19:42:41.020Z,64.80
2023-02-26T19:46:04.616Z,64.80
2023-02-26T19:49:38.184Z,65.50
2023-02-26T19:52:49.469Z,64.40
2023-02-26T19:56:00.163Z,64.50
2023-02-26T19:59:09.302Z,65.40
2023-02-26T20:02:15.881Z,64.60
2023-02-26T20:05:55.994Z,64.70
2023-02-26T20:09:14.217Z,64.60
2023-02-26T20:12:31.680Z,65.10
2023-02-26T20:15:47.321Z,65.00
2023-02-26T20:18:55.411Z,65.40
2023-02-26T20:22:00.377Z,64.90
2023-02-26T20:25:09.661Z,64.30
2023-02-26T20:28:22.551Z,65.90
2023-02-26T20:31:27.245Z,65.70
2023-02-26T20:34:32.351Z,64.80
2023-02-26T20:37:36.255Z,65.20
2023-02-26T20:40:43.030Z,64.80
2023-02-26T20:43:47.061Z,66.20
2023-02-26T20:46:52.875Z,65.40
2023-02-26T20:50:27.617Z,66.40
2023-02-26T20:53:50.814Z,65.80
2023-02-26T20:57:24.751Z,66.00
2023-02-26T21:00:53.600Z,65.10
2023-02-26T21:04:23.244Z,65.50
2023-02-26T21:07:58.392Z,65.30
2023-02-26T21:14:55.742Z,65.30
2023-02-26T21:18:39.488Z,66.60
2023-02-26T21:22:09.359Z,65.30
2023-02-26T21:25:50.911Z,65.40
2023-02-26T21:29:17.274Z,65.30
2023-02-26T21:33:13.976Z,65.20
2023-02-26T21:36:42.441Z,65.30
2023-02-26T21:40:09.750Z,65.70
2023-02-26T21:43:35.535Z,65.50
2023-02-26T21:47:04.743Z,65.60
2023-02-26T21:50:48.229Z,67.00
2023-02-26T21:54:28.500Z,66.50
2023-02-26T21:58:17.182Z,66.70
2023-02-26T22:01:40.198Z,66.70
2023-02-26T22:15:47.461Z,66.30
2023-02-26T22:23:06.577Z,66.70
2023-02-26T22:32:56.857Z,66.60
2023-02-26T22:42:16.146Z,67.20
2023-02-26T22:58:13.152Z,66.50
2023-02-26T23:08:22.128Z,66.40
2023-02-26T23:21:19.831Z,66.20
2023-02-26T23:24:38.176Z,67.10
2023-02-26T23:37:11.046Z,66.60
2023-02-26T23:40:24.585Z,66.60
2023-02-26T23:46:38.366Z,67.00
2023-02-26T23:49:43.488Z,68.30
2023-02-26T23:52:49.342Z,67.70
2023-02-26T23:55:58.999Z,70.50
